createdAt,value
2022-09-04T09:39:58.529Z,4684.00
2022-09-04T09:40:59.281Z,4668.00
2022-09-04T09:43:02.482Z,4664.00
2022-09-04T09:44:02.467Z,4656.00
2022-09-04T09:46:06.504Z,4520.00
2022-09-04T09:47:06.457Z,4380.00
2022-09-04T09:49:15.077Z,4340.00
2022-09-04T09:50:10.452Z,4332.00
2022-09-04T09:52:14.490Z,4260.00
2022-09-04T09:53:14.486Z,4240.00
2022-09-04T09:55:18.471Z,4172.00
2022-09-04T09:56:18.494Z,4092.00
2022-09-04T09:58:22.479Z,4092.00
2022-09-04T09:59:22.458Z,4076.00
2022-09-04T10:01:26.539Z,4036.00
2022-09-04T10:02:26.490Z,4000.00
2022-09-04T10:04:34.090Z,4000.00
2022-09-04T10:05:30.514Z,3992.00
2022-09-04T10:07:23.458Z,3952.00
2022-09-04T10:08:23.435Z,3916.00
2022-09-04T10:10:27.436Z,3824.00
2022-09-04T10:11:27.444Z,3764.00
2022-09-04T10:13:31.457Z,3636.00
2022-09-04T10:14:31.452Z,3616.00
2022-09-04T10:16:35.536Z,3644.00
2022-09-04T10:17:35.454Z,3632.00
2022-09-04T10:19:39.509Z,3740.00
2022-09-04T10:20:39.550Z,3740.00
2022-09-04T10:22:43.470Z,3712.00
2022-09-04T10:23:43.444Z,3692.00
2022-09-04T10:25:47.471Z,3672.00
2022-09-04T10:26:47.458Z,3640.00
2022-09-04T10:28:51.470Z,3588.00
2022-09-04T10:29:51.446Z,3528.00
2022-09-04T10:31:55.455Z,3416.00
2022-09-04T10:32:55.447Z,3408.00
2022-09-04T10:34:59.456Z,3424.00
2022-09-04T10:35:59.443Z,3328.00
2022-09-04T10:37:52.395Z,3224.00
2022-09-04T10:38:52.369Z,3200.00
2022-09-04T10:40:56.387Z,3216.00
2022-09-04T10:41:56.369Z,3220.00
2022-09-04T10:44:00.384Z,3196.00
2022-09-04T10:45:00.375Z,3200.00
2022-09-04T10:46:53.313Z,3160.00
2022-09-04T10:47:53.301Z,3152.00
2022-09-04T10:49:57.303Z,3124.00
2022-09-04T10:50:57.311Z,3140.00
2022-09-04T10:53:01.358Z,3108.00
2022-09-04T10:54:05.415Z,3088.00
2022-09-04T10:56:05.336Z,3064.00
2022-09-04T10:57:05.337Z,3048.00
2022-09-04T10:59:09.320Z,3012.00
2022-09-04T11:00:09.329Z,2964.00
2022-09-04T11:02:13.385Z,2968.00
2022-09-04T11:03:13.333Z,2920.00
2022-09-04T11:05:17.322Z,2916.00
2022-09-04T11:06:17.326Z,2904.00
2022-09-04T11:08:21.335Z,2908.00
2022-09-04T11:09:21.324Z,2940.00
2022-09-04T11:11:25.340Z,2972.00
2022-09-04T11:12:25.325Z,2940.00
2022-09-04T11:14:29.407Z,2956.00
2022-09-04T11:15:29.347Z,2920.00
2022-09-04T11:17:24.355Z,2880.00
2022-09-04T11:18:22.300Z,2904.00
2022-09-04T11:20:26.315Z,2960.00
2022-09-04T11:21:26.308Z,2992.00
2022-09-04T11:23:30.337Z,2992.00
2022-09-04T11:24:30.311Z,2996.00
2022-09-04T11:26:23.760Z,3008.00
2022-09-04T11:27:23.736Z,2980.00
2022-09-04T11:28:23.747Z,2944.00
2022-09-04T11:29:23.743Z,2952.00
2022-09-04T11:30:23.767Z,2968.00
2022-09-04T11:31:23.797Z,2960.00
2022-09-04T11:32:23.824Z,2964.00
2022-09-04T11:33:23.815Z,2916.00
2022-09-04T11:34:23.762Z,2912.00
2022-09-04T11:35:23.767Z,2904.00
2022-09-04T11:36:23.770Z,2908.00
2022-09-04T11:37:30.756Z,2920.00
2022-09-04T11:38:23.777Z,2940.00
2022-09-04T11:39:23.805Z,2936.00
2022-09-04T11:40:23.781Z,2944.00
2022-09-04T11:41:23.784Z,2920.00
2022-09-04T11:42:23.789Z,2956.00
2022-09-04T11:43:23.794Z,2984.00
2022-09-04T11:44:23.799Z,2956.00
2022-09-04T11:45:23.870Z,2968.00
2022-09-04T11:46:23.804Z,2968.00
2022-09-04T11:47:23.806Z,2936.00
2022-09-04T11:48:23.811Z,2912.00
2022-09-04T11:49:23.812Z,2904.00
2022-09-04T11:50:23.818Z,2864.00
2022-09-04T11:51:38.771Z,2824.00
2022-09-04T11:52:23.825Z,2792.00
2022-09-04T11:53:23.982Z,2784.00
2022-09-04T11:54:23.879Z,2768.00
2022-09-04T11:55:23.833Z,2720.00
2022-09-04T11:56:23.836Z,2768.00
2022-09-04T11:57:23.845Z,2792.00
2022-09-04T11:58:23.873Z,2816.00
2022-09-04T11:59:23.877Z,2852.00
2022-09-04T12:00:23.852Z,2900.00
2022-09-04T12:01:23.858Z,2932.00
2022-09-04T12:02:23.928Z,2940.00
2022-09-04T12:03:23.881Z,2968.00
2022-09-04T12:04:23.942Z,3008.00
2022-09-04T12:05:23.865Z,2984.00
2022-09-04T12:06:23.872Z,2900.00
2022-09-04T12:07:23.874Z,2840.00
2022-09-04T12:08:23.876Z,2796.00
2022-09-04T12:09:23.886Z,2792.00
2022-09-04T12:10:23.884Z,2808.00
2022-09-04T12:11:23.900Z,2828.00
2022-09-04T12:12:23.899Z,2800.00
2022-09-04T12:13:23.907Z,2788.00
2022-09-04T12:14:23.898Z,2788.00
2022-09-04T12:15:23.900Z,2756.00
2022-09-04T12:16:23.934Z,2760.00
2022-09-04T12:17:30.794Z,2744.00
2022-09-04T12:18:23.916Z,2140.00
2022-09-04T12:19:24.777Z,2032.00
2022-09-04T12:20:23.919Z,2704.00
2022-09-04T12:21:23.938Z,2776.00
2022-09-04T12:22:23.934Z,2832.00
2022-09-04T12:23:23.947Z,2860.00
2022-09-04T12:24:23.931Z,2856.00
2022-09-04T12:25:23.948Z,2852.00
2022-09-04T12:26:23.936Z,2636.00
2022-09-04T12:27:23.946Z,2340.00
2022-09-04T12:28:23.962Z,2816.00
2022-09-04T12:29:23.944Z,2864.00
2022-09-04T12:30:23.959Z,2820.00
2022-09-04T12:31:24.051Z,2804.00
2022-09-04T12:32:23.978Z,2836.00
2022-09-04T12:33:24.004Z,2856.00
2022-09-04T12:34:23.959Z,2856.00
2022-09-04T12:35:26.535Z,2848.00
2022-09-04T12:36:23.969Z,2860.00
2022-09-04T12:37:23.979Z,2860.00
2022-09-04T12:38:23.979Z,2856.00
2022-09-04T12:39:24.050Z,2864.00
2022-09-04T12:40:23.982Z,2828.00
2022-09-04T12:41:23.997Z,2816.00
2022-09-04T12:42:23.999Z,2620.00
2022-09-04T12:43:24.081Z,2424.00
2022-09-04T12:44:23.996Z,2732.00
2022-09-04T12:45:24.032Z,2860.00
2022-09-04T12:46:23.999Z,2880.00
2022-09-04T12:47:31.499Z,2888.00
2022-09-04T12:48:24.012Z,2868.00
2022-09-04T12:49:24.019Z,2904.00
2022-09-04T12:50:24.023Z,2884.00
2022-09-04T12:51:24.057Z,2812.00
2022-09-04T12:52:24.026Z,2812.00
2022-09-04T12:53:24.179Z,2844.00
2022-09-04T12:54:24.030Z,2856.00
2022-09-04T12:55:24.033Z,2524.00
2022-09-04T12:56:24.036Z,2804.00
2022-09-04T12:57:24.038Z,2904.00
2022-09-04T12:58:24.056Z,2948.00
2022-09-04T12:59:24.056Z,2956.00
2022-09-04T13:00:24.054Z,2964.00
2022-09-04T13:01:24.105Z,2948.00
2022-09-04T13:02:24.197Z,2976.00
2022-09-04T13:03:24.272Z,2984.00
2022-09-04T13:04:27.712Z,2988.00
2022-09-04T13:05:24.070Z,3004.00
2022-09-04T13:06:24.077Z,2972.00
2022-09-04T13:07:24.076Z,3056.00
2022-09-04T13:08:24.087Z,3172.00
2022-09-04T13:09:24.079Z,3176.00
2022-09-04T13:10:24.086Z,3096.00
2022-09-04T13:11:24.099Z,3028.00
2022-09-04T13:12:24.096Z,2960.00
2022-09-04T13:13:25.164Z,2940.00
2022-09-04T13:14:24.112Z,2420.00
2022-09-04T13:16:24.172Z,3092.00
2022-09-04T13:17:24.123Z,3112.00
2022-09-04T13:18:24.114Z,3120.00
2022-09-04T13:19:24.121Z,3112.00
2022-09-04T13:20:24.134Z,3128.00
2022-09-04T13:21:30.805Z,3068.00
2022-09-04T13:22:24.126Z,3064.00
2022-09-04T13:23:26.978Z,3072.00
2022-09-04T13:24:24.136Z,3072.00
2022-09-04T13:25:24.142Z,3056.00
2022-09-04T13:26:38.812Z,3080.00
2022-09-04T13:27:24.148Z,3136.00
2022-09-04T13:28:24.154Z,3108.00
2022-09-04T13:29:24.159Z,2776.00
2022-09-04T13:31:55.880Z,2276.00
2022-09-04T13:32:55.888Z,3212.00
2022-09-04T13:34:59.824Z,3468.00
2022-09-04T13:35:59.829Z,3476.00
2022-09-04T13:37:52.781Z,3396.00
2022-09-04T13:38:52.753Z,3384.00
2022-09-04T13:40:56.767Z,3336.00
2022-09-04T13:41:56.773Z,2612.00
2022-09-04T13:42:56.769Z,2320.00
2022-09-04T13:43:56.769Z,2220.00
2022-09-04T13:44:56.767Z,2132.00
2022-09-04T13:45:56.769Z,2288.00
2022-09-04T13:46:56.866Z,2092.00
2022-09-04T13:47:56.781Z,3020.00
2022-09-04T13:48:56.781Z,3244.00
2022-09-04T13:49:56.853Z,3148.00
2022-09-04T13:50:56.795Z,3384.00
2022-09-04T13:51:56.813Z,3584.00
2022-09-04T13:52:56.795Z,3764.00
2022-09-04T13:53:56.805Z,3820.00
2022-09-04T13:54:56.802Z,3460.00
2022-09-04T13:55:56.807Z,3632.00
2022-09-04T13:56:56.809Z,3680.00
2022-09-04T13:57:56.817Z,3772.00
2022-09-04T13:58:56.815Z,3648.00
2022-09-04T13:59:56.835Z,3780.00
2022-09-04T14:00:56.971Z,3728.00
2022-09-04T14:01:56.837Z,3404.00
2022-09-04T14:02:56.831Z,3280.00
2022-09-04T14:03:56.861Z,3500.00
2022-09-04T14:04:56.836Z,3692.00
2022-09-04T14:05:56.864Z,3656.00
2022-09-04T14:06:56.854Z,3628.00
2022-09-04T14:07:56.848Z,3564.00
2022-09-04T14:09:05.163Z,3552.00
2022-09-04T14:09:56.873Z,3528.00
2022-09-04T14:10:56.856Z,3496.00
2022-09-04T14:11:56.867Z,3400.00
2022-09-04T14:12:56.875Z,3324.00
2022-09-04T14:13:56.870Z,2540.00
2022-09-04T14:14:56.881Z,2172.00
2022-09-04T14:15:56.953Z,2124.00
2022-09-04T14:16:56.896Z,2152.00
2022-09-04T14:17:56.886Z,2224.00
2022-09-04T14:18:56.899Z,2300.00
2022-09-04T14:19:57.819Z,2900.00
2022-09-04T14:20:56.932Z,3696.00
2022-09-04T14:21:57.004Z,3848.00
2022-09-04T14:22:56.921Z,3868.00
2022-09-04T14:23:56.915Z,3884.00
2022-09-04T14:24:56.924Z,3908.00
2022-09-04T14:25:56.926Z,3964.00
2022-09-04T14:26:56.927Z,4016.00
2022-09-04T14:27:56.930Z,4036.00
2022-09-04T14:28:56.942Z,3952.00
2022-09-04T14:29:56.939Z,3860.00
2022-09-04T14:30:58.851Z,3656.00
2022-09-04T14:31:56.984Z,2892.00
2022-09-04T14:32:57.951Z,3268.00
2022-09-04T14:33:56.955Z,2400.00
2022-09-04T14:34:56.954Z,2360.00
2022-09-04T14:35:56.962Z,3044.00
2022-09-04T14:36:56.968Z,3800.00
2022-09-04T14:37:56.975Z,4056.00
2022-09-04T14:38:56.966Z,4148.00
2022-09-04T14:39:57.008Z,4124.00
2022-09-04T14:40:56.980Z,4156.00
2022-09-04T14:41:56.984Z,4080.00
2022-09-04T14:42:56.986Z,4084.00
2022-09-04T14:43:57.001Z,4036.00
2022-09-04T14:44:56.990Z,3988.00
2022-09-04T14:45:57.008Z,4004.00
2022-09-04T14:46:57.111Z,4088.00
2022-09-04T14:47:57.005Z,4132.00
2022-09-04T14:48:57.021Z,4060.00
2022-09-04T14:49:57.021Z,4284.00
2022-09-04T14:50:57.015Z,4392.00
2022-09-04T14:51:57.023Z,4392.00
2022-09-04T14:52:57.032Z,4192.00
2022-09-04T14:53:57.106Z,4220.00
2022-09-04T14:54:57.036Z,4160.00
2022-09-04T14:55:57.038Z,3980.00
2022-09-04T14:56:57.055Z,3680.00
2022-09-04T14:57:57.062Z,3200.00
2022-09-04T14:58:57.052Z,2628.00
2022-09-04T14:59:57.065Z,2740.00
2022-09-04T15:00:57.063Z,2856.00
2022-09-04T15:01:57.119Z,3196.00
2022-09-04T15:02:57.087Z,3208.00
2022-09-04T15:03:57.158Z,3312.00
2022-09-04T15:04:57.119Z,3376.00
2022-09-04T15:05:57.128Z,3096.00
2022-09-04T15:07:12.136Z,3120.00
2022-09-04T15:09:01.104Z,2204.00
2022-09-04T15:10:01.098Z,1828.00
2022-09-04T15:11:01.087Z,1688.00
2022-09-04T15:12:23.256Z,1580.00
2022-09-04T15:13:01.108Z,1944.00
2022-09-04T15:14:01.151Z,2744.00
2022-09-04T15:15:01.105Z,2648.00
2022-09-04T15:16:01.150Z,2720.00
2022-09-04T15:17:01.110Z,2708.00
2022-09-04T15:18:01.121Z,2808.00
2022-09-04T15:19:01.128Z,2876.00
2022-09-04T15:20:01.138Z,2892.00
2022-09-04T15:21:02.049Z,2832.00
2022-09-04T15:22:01.137Z,2808.00
2022-09-04T15:23:01.148Z,2720.00
2022-09-04T15:24:01.135Z,2720.00
2022-09-04T15:25:01.142Z,2744.00
2022-09-04T15:26:01.157Z,2688.00
2022-09-04T15:27:01.153Z,2688.00
2022-09-04T15:28:01.159Z,2668.00
2022-09-04T15:29:01.160Z,2676.00
2022-09-04T15:30:01.174Z,2752.00
2022-09-04T15:31:01.219Z,2720.00
2022-09-04T15:32:01.255Z,2856.00
2022-09-04T15:33:01.172Z,2468.00
2022-09-04T15:34:01.182Z,2412.00
2022-09-04T15:35:01.199Z,2536.00
2022-09-04T15:36:01.184Z,2584.00
2022-09-04T15:37:01.185Z,2404.00
2022-09-04T15:38:02.034Z,2260.00
2022-09-04T15:39:01.198Z,2000.00
2022-09-04T15:40:01.331Z,1976.00
2022-09-04T15:41:17.199Z,1816.00
2022-09-04T15:42:01.199Z,1928.00
2022-09-04T15:43:01.262Z,2248.00
2022-09-04T15:44:01.204Z,2436.00
2022-09-04T15:45:01.235Z,2648.00
2022-09-04T15:46:01.286Z,2816.00
2022-09-04T15:47:01.270Z,3416.00
2022-09-04T15:48:01.227Z,4104.00
2022-09-04T15:49:01.233Z,4692.00
2022-09-04T15:50:01.366Z,6060.00
2022-09-04T15:51:01.236Z,7380.00
2022-09-04T15:52:01.242Z,8512.00
2022-09-04T15:53:01.246Z,8888.00
2022-09-04T15:54:01.245Z,8392.00
2022-09-04T15:55:01.249Z,7376.00
2022-09-04T15:56:01.253Z,4996.00
2022-09-04T15:57:01.256Z,3864.00
2022-09-04T15:58:01.264Z,4524.00
2022-09-04T15:59:01.275Z,6872.00
2022-09-04T16:00:01.268Z,6252.00
2022-09-04T16:01:01.267Z,4288.00
2022-09-04T16:02:01.381Z,5432.00
2022-09-04T16:03:01.294Z,7040.00
2022-09-04T16:04:01.368Z,7396.00
2022-09-04T16:05:01.324Z,6732.00
2022-09-04T16:06:01.284Z,6472.00
2022-09-04T16:07:01.291Z,5980.00
2022-09-04T16:08:01.299Z,5712.00
2022-09-04T16:09:01.310Z,4848.00
2022-09-04T16:10:01.320Z,3400.00
2022-09-04T16:11:01.318Z,2592.00
2022-09-04T16:12:01.316Z,2364.00
2022-09-04T16:13:01.319Z,2324.00
2022-09-04T16:14:01.327Z,2200.00
2022-09-04T16:15:01.384Z,2108.00
2022-09-04T16:16:04.418Z,1936.00
2022-09-04T16:17:01.338Z,1800.00
2022-09-04T16:18:01.340Z,1872.00
2022-09-04T16:19:01.349Z,1860.00
2022-09-04T16:20:01.345Z,1828.00
2022-09-04T16:21:01.372Z,1696.00
2022-09-04T16:22:01.360Z,1480.00
2022-09-04T16:23:01.388Z,1368.00
2022-09-04T16:24:01.371Z,1512.00
2022-09-04T16:25:01.363Z,1636.00
2022-09-04T16:26:01.375Z,1724.00
2022-09-04T16:27:01.369Z,1796.00
2022-09-04T16:28:01.414Z,1792.00
2022-09-04T16:29:01.403Z,1732.00
2022-09-04T16:30:01.390Z,1688.00
2022-09-04T16:31:01.432Z,1716.00
2022-09-04T16:32:01.395Z,1708.00
2022-09-04T16:33:01.400Z,1656.00
2022-09-04T16:34:01.390Z,1632.00
2022-09-04T16:35:01.398Z,1656.00
2022-09-04T16:36:01.401Z,1648.00
2022-09-04T16:37:01.433Z,1636.00
2022-09-04T16:38:01.401Z,1952.00
2022-09-04T16:39:01.410Z,2036.00
2022-09-04T16:40:01.649Z,2016.00
2022-09-04T16:41:01.415Z,2180.00
2022-09-04T16:42:01.421Z,2996.00
2022-09-04T16:43:01.419Z,2788.00
2022-09-04T16:44:01.488Z,1692.00
2022-09-04T16:45:01.426Z,1420.00
2022-09-04T16:46:01.469Z,1364.00
2022-09-04T16:47:01.429Z,1328.00
2022-09-04T16:48:10.702Z,1312.00
2022-09-04T16:49:01.440Z,1228.00
2022-09-04T16:50:01.454Z,1184.00
2022-09-04T16:51:01.455Z,1172.00
2022-09-04T16:52:01.454Z,1156.00
2022-09-04T16:53:13.624Z,1140.00
2022-09-04T16:54:01.479Z,1064.00
2022-09-04T16:55:01.459Z,984.00
2022-09-04T16:56:01.464Z,940.00
2022-09-04T16:57:12.449Z,892.00
2022-09-04T16:58:01.465Z,848.00
2022-09-04T16:59:01.524Z,812.00
2022-09-04T17:00:01.515Z,780.00
2022-09-04T17:01:12.831Z,756.00
2022-09-04T17:02:01.642Z,736.00
2022-09-04T17:03:01.658Z,724.00
2022-09-04T17:04:13.474Z,712.00
2022-09-04T17:05:01.499Z,688.00
2022-09-04T17:06:01.515Z,664.00
2022-09-04T17:07:01.496Z,648.00
2022-09-04T17:08:01.499Z,632.00
2022-09-04T17:09:01.521Z,616.00
2022-09-04T17:10:01.504Z,600.00
2022-09-04T17:11:01.584Z,584.00
2022-09-04T17:12:01.566Z,564.00
2022-09-04T17:13:01.545Z,548.00
2022-09-04T17:14:09.058Z,532.00
2022-09-04T17:15:01.521Z,512.00
2022-09-04T17:16:01.584Z,496.00
2022-09-04T17:17:01.530Z,484.00
2022-09-04T17:18:01.533Z,468.00
2022-09-04T17:19:01.535Z,452.00
2022-09-04T17:20:01.550Z,436.00
2022-09-04T17:23:16.687Z,424.00
2022-09-04T17:26:29.878Z,412.00
2022-09-04T17:29:00.321Z,404.00
2022-09-04T17:29:03.250Z,392.00
2022-09-04T17:29:11.655Z,388.00
2022-09-04T17:29:12.867Z,368.00
2022-09-04T17:29:16.210Z,376.00
2022-09-04T17:29:16.666Z,348.00
2022-09-04T17:29:34.484Z,340.00
2022-09-04T17:30:01.564Z,324.00
2022-09-04T17:31:01.628Z,304.00
2022-09-04T17:32:11.844Z,292.00
2022-09-04T17:37:56.524Z,276.00
2022-09-04T17:39:35.770Z,260.00
2022-09-04T17:40:30.412Z,244.00
2022-09-04T17:40:35.494Z,232.00
2022-09-04T17:40:53.295Z,180.00
2022-09-04T17:40:54.278Z,212.00
2022-09-04T17:40:55.608Z,200.00
2022-09-04T17:40:56.465Z,164.00
2022-09-04T17:41:38.134Z,148.00
2022-09-04T17:42:09.663Z,132.00
2022-09-04T17:43:21.541Z,124.00
2022-09-04T17:44:01.615Z,108.00
2022-09-04T17:45:01.622Z,100.00
2022-09-04T17:46:01.675Z,92.00
2022-09-04T17:47:01.624Z,84.00
2022-09-04T17:48:02.248Z,76.00
2022-09-04T17:49:01.645Z,64.00
2022-09-04T17:50:01.656Z,56.00
2022-09-04T17:51:01.648Z,52.00
2022-09-04T17:52:01.638Z,48.00
2022-09-04T17:53:01.645Z,40.00
2022-09-04T17:54:01.686Z,36.00
2022-09-04T17:55:01.649Z,32.00
2022-09-04T17:56:06.805Z,28.00
2022-09-04T17:57:01.642Z,24.00
2022-09-04T17:58:01.673Z,20.00
2022-09-04T17:59:01.647Z,16.00
2022-09-04T18:00:01.650Z,16.00
2022-09-04T18:01:15.115Z,12.00
2022-09-04T18:02:01.709Z,8.00
2022-09-04T18:03:01.730Z,8.00
2022-09-04T18:04:19.955Z,8.00
2022-09-04T18:05:01.659Z,4.00
2022-09-04T18:06:01.665Z,8.00
2022-09-04T18:07:29.033Z,4.00
2022-09-04T18:08:09.961Z,4.00
2022-09-04T18:09:01.685Z,4.00
2022-09-04T18:10:01.671Z,0.00
2022-09-04T18:11:01.676Z,4.00
2022-09-04T18:12:01.668Z,4.00
2022-09-04T18:13:01.679Z,4.00
2022-09-04T18:14:01.672Z,0.00
2022-09-04T18:15:32.224Z,0.00
2022-09-04T18:16:01.737Z,0.00
2022-09-04T18:17:12.444Z,0.00
2022-09-04T18:18:01.723Z,0.00
2022-09-04T18:19:01.691Z,0.00
2022-09-04T18:20:01.713Z,0.00
2022-09-04T18:21:01.694Z,0.00
2022-09-04T18:22:25.934Z,0.00
2022-09-04T18:23:01.705Z,0.00
2022-09-04T18:24:01.707Z,0.00
2022-09-04T18:25:17.193Z,0.00
2022-09-04T18:26:01.711Z,0.00
2022-09-04T18:27:01.726Z,0.00
2022-09-04T18:28:06.379Z,0.00
2022-09-04T18:29:26.438Z,0.00
2022-09-04T18:32:29.052Z,0.00
2022-09-04T18:37:08.684Z,0.00
2022-09-04T18:37:08.981Z,0.00
2022-09-04T18:37:18.389Z,0.00
2022-09-04T18:37:19.826Z,0.00
2022-09-04T18:37:20.591Z,0.00
2022-09-04T18:37:21.333Z,0.00
2022-09-04T18:37:26.390Z,0.00
2022-09-04T18:38:01.917Z,0.00
2022-09-04T18:39:08.337Z,0.00
2022-09-04T18:40:01.787Z,0.00
2022-09-04T18:44:31.889Z,0.00
2022-09-04T18:49:00.375Z,0.00
2022-09-04T18:50:25.692Z,0.00
2022-09-04T18:50:25.800Z,0.00
2022-09-04T18:50:28.111Z,0.00
2022-09-04T18:50:29.375Z,0.00
2022-09-04T18:50:31.621Z,0.00
2022-09-04T18:50:36.751Z,0.00
2022-09-04T18:50:45.998Z,0.00
2022-09-04T18:50:49.493Z,0.00
2022-09-04T18:51:19.450Z,0.00
2022-09-04T18:52:01.857Z,0.00
2022-09-04T18:53:01.779Z,0.00
2022-09-04T18:54:01.778Z,0.00
2022-09-04T18:55:01.776Z,0.00
2022-09-04T18:56:01.771Z,0.00
2022-09-04T18:57:01.776Z,0.00
2022-09-04T18:58:01.769Z,0.00
2022-09-04T18:59:01.778Z,0.00
2022-09-04T19:00:07.840Z,0.00
2022-09-04T19:01:01.932Z,0.00
2022-09-04T19:02:01.947Z,0.00
2022-09-04T19:03:01.806Z,0.00
2022-09-04T19:04:01.789Z,0.00
2022-09-04T19:05:01.804Z,0.00
2022-09-04T19:06:02.589Z,0.00
2022-09-04T19:07:07.911Z,0.00
2022-09-04T19:08:01.810Z,0.00
2022-09-04T19:09:01.792Z,0.00
2022-09-04T19:10:01.795Z,0.00
2022-09-04T19:11:01.802Z,0.00
2022-09-04T19:12:01.816Z,0.00
2022-09-04T19:13:01.813Z,0.00
2022-09-04T19:14:09.918Z,0.00
2022-09-04T19:15:01.803Z,0.00
2022-09-04T19:16:01.887Z,0.00
2022-09-04T19:17:01.862Z,0.00
2022-09-04T19:18:01.857Z,0.00
2022-09-04T19:19:01.812Z,0.00
2022-09-04T19:20:01.816Z,0.00
2022-09-04T19:21:01.824Z,0.00
2022-09-04T19:22:01.814Z,0.00
2022-09-04T19:23:01.824Z,0.00
2022-09-04T19:24:01.941Z,0.00
2022-09-04T19:25:01.858Z,0.00
2022-09-04T19:26:01.861Z,0.00
2022-09-04T19:27:01.833Z,0.00
2022-09-04T19:28:01.876Z,0.00
2022-09-04T19:29:01.834Z,0.00
2022-09-04T19:30:05.214Z,0.00
2022-09-04T19:31:01.852Z,0.00
2022-09-04T19:32:01.981Z,0.00
2022-09-04T19:33:01.866Z,0.00
2022-09-04T19:34:01.844Z,0.00
2022-09-04T19:35:01.855Z,0.00
2022-09-04T19:36:01.913Z,0.00
2022-09-04T19:37:20.409Z,0.00
2022-09-04T19:44:03.947Z,0.00
2022-09-04T19:45:55.599Z,0.00
2022-09-04T19:46:00.357Z,0.00
2022-09-04T19:46:02.603Z,0.00
2022-09-04T19:46:03.963Z,0.00
2022-09-04T19:46:11.718Z,0.00
2022-09-04T19:46:16.212Z,0.00
2022-09-04T19:46:18.862Z,0.00
2022-09-04T19:46:26.209Z,0.00
2022-09-04T19:47:02.008Z,0.00
2022-09-04T19:48:02.009Z,0.00
2022-09-04T19:49:46.516Z,0.00
2022-09-04T19:53:11.478Z,0.00
2022-09-04T19:53:23.204Z,0.00
2022-09-04T19:53:35.189Z,0.00
2022-09-04T19:53:36.106Z,0.00
2022-09-04T19:54:01.877Z,0.00
2022-09-04T19:55:23.419Z,0.00
2022-09-04T19:56:01.887Z,0.00
2022-09-04T19:57:32.582Z,0.00
2022-09-04T19:58:01.970Z,0.00
2022-09-04T19:59:01.905Z,0.00
2022-09-04T20:00:28.203Z,0.00
2022-09-04T20:01:01.920Z,0.00
2022-09-04T20:02:03.670Z,0.00
2022-09-04T20:03:01.905Z,0.00
2022-09-04T20:04:01.927Z,0.00
2022-09-04T20:05:01.923Z,0.00
2022-09-04T20:06:19.780Z,0.00
2022-09-04T20:07:01.922Z,0.00
2022-09-04T20:08:01.901Z,0.00
2022-09-04T20:09:01.959Z,0.00
2022-09-04T20:10:02.693Z,0.00
2022-09-04T20:11:01.916Z,0.00
2022-09-04T20:12:01.906Z,0.00
2022-09-04T20:13:01.958Z,0.00
2022-09-04T20:14:02.191Z,0.00
2022-09-04T20:15:01.952Z,0.00
2022-09-04T20:16:01.973Z,0.00
2022-09-04T20:17:02.008Z,0.00
2022-09-04T20:18:04.287Z,0.00
2022-09-04T20:19:01.914Z,0.00
2022-09-04T20:20:01.945Z,0.00
2022-09-04T20:21:01.940Z,0.00
2022-09-04T20:22:01.973Z,0.00
2022-09-04T20:23:01.940Z,0.00
2022-09-04T20:24:01.942Z,0.00
2022-09-04T20:25:02.578Z,0.00
2022-09-04T20:26:01.956Z,0.00
2022-09-04T20:27:01.950Z,0.00
2022-09-04T20:28:01.971Z,0.00
2022-09-04T20:29:01.926Z,0.00
2022-09-04T20:30:02.076Z,0.00
2022-09-04T20:31:01.980Z,0.00
2022-09-04T20:32:01.993Z,0.00
2022-09-04T20:33:01.981Z,0.00
2022-09-04T20:34:01.930Z,0.00
2022-09-04T20:35:14.070Z,0.00
2022-09-04T20:36:01.934Z,0.00
2022-09-04T20:37:01.939Z,0.00
2022-09-04T20:38:01.957Z,0.00
2022-09-04T20:39:01.949Z,0.00
2022-09-04T20:40:02.029Z,0.00
2022-09-04T20:41:01.953Z,0.00
2022-09-04T20:42:01.954Z,0.00
2022-09-04T20:43:01.954Z,0.00
2022-09-04T20:44:01.944Z,0.00
2022-09-04T20:46:26.409Z,0.00
2022-09-04T20:48:43.329Z,0.00
2022-09-04T20:52:44.558Z,0.00
2022-09-04T20:52:49.296Z,0.00
2022-09-04T20:52:52.986Z,0.00
2022-09-04T20:52:53.163Z,0.00
2022-09-04T20:52:56.702Z,0.00
2022-09-04T20:53:00.394Z,0.00
2022-09-04T20:53:07.754Z,0.00
2022-09-04T20:54:02.051Z,0.00
2022-09-04T20:55:01.957Z,0.00
2022-09-04T20:56:01.949Z,0.00
2022-09-04T21:01:12.570Z,0.00
2022-09-04T21:03:05.536Z,0.00
2022-09-04T21:03:10.003Z,0.00
2022-09-04T21:03:10.583Z,0.00
2022-09-04T21:03:11.657Z,0.00
2022-09-04T21:03:14.758Z,0.00
2022-09-04T21:03:21.751Z,0.00
2022-09-04T21:04:02.076Z,0.00
2022-09-04T21:05:02.088Z,0.00
2022-09-04T21:06:06.840Z,0.00
2022-09-04T21:07:01.971Z,0.00
2022-09-04T21:08:01.982Z,0.00
2022-09-04T21:09:01.974Z,0.00
2022-09-04T21:10:01.970Z,0.00
2022-09-04T21:11:01.965Z,0.00
2022-09-04T21:12:01.966Z,0.00
2022-09-04T21:13:14.066Z,0.00
2022-09-04T21:14:01.999Z,0.00
2022-09-04T21:15:02.017Z,0.00
2022-09-04T21:16:02.019Z,0.00
2022-09-04T21:17:02.020Z,0.00
2022-09-04T21:18:01.973Z,0.00
2022-09-04T21:19:14.372Z,0.00
2022-09-04T21:20:01.989Z,0.00
2022-09-04T21:21:01.981Z,0.00
2022-09-04T21:22:01.979Z,0.00
2022-09-04T21:23:01.990Z,0.00
2022-09-04T21:24:03.068Z,0.00
2022-09-04T21:25:02.024Z,0.00
2022-09-04T21:26:01.993Z,0.00
2022-09-04T21:27:02.005Z,0.00
2022-09-04T21:28:01.988Z,0.00
2022-09-04T21:29:10.592Z,0.00
2022-09-04T21:30:01.983Z,0.00
2022-09-04T21:31:02.042Z,0.00
2022-09-04T21:32:02.075Z,0.00
2022-09-04T21:33:26.631Z,0.00
2022-09-04T21:34:02.002Z,0.00
2022-09-04T21:35:01.987Z,0.00
2022-09-04T21:36:25.211Z,0.00
2022-09-04T21:37:01.991Z,0.00
2022-09-04T21:38:01.997Z,0.00
2022-09-04T21:39:02.000Z,0.00
2022-09-04T21:40:02.065Z,0.00
2022-09-04T21:41:01.999Z,0.00
2022-09-04T21:42:02.980Z,0.00
2022-09-04T21:43:02.051Z,0.00
2022-09-04T21:44:01.998Z,0.00
2022-09-04T21:45:02.005Z,0.00
2022-09-04T21:46:01.992Z,0.00
2022-09-04T21:47:08.428Z,0.00
2022-09-04T21:48:02.031Z,0.00
2022-09-04T21:49:07.619Z,0.00
2022-09-04T21:50:02.000Z,0.00
2022-09-04T21:51:02.028Z,0.00
2022-09-04T21:52:01.997Z,0.00
2022-09-04T21:53:02.019Z,0.00
2022-09-04T21:54:02.022Z,0.00
2022-09-04T21:57:28.837Z,0.00
2022-09-04T21:59:41.170Z,0.00
2022-09-04T22:02:25.877Z,0.00
2022-09-04T22:02:31.820Z,0.00
2022-09-04T22:02:39.057Z,0.00
2022-09-04T22:02:41.705Z,0.00
2022-09-04T22:02:42.254Z,0.00
2022-09-04T22:02:43.253Z,0.00
2022-09-04T22:03:02.829Z,0.00
2022-09-04T22:04:02.108Z,0.00
2022-09-04T22:05:02.282Z,0.00
2022-09-04T22:06:03.830Z,0.00
2022-09-04T22:11:55.593Z,0.00
2022-09-04T22:12:22.335Z,0.00
2022-09-04T22:13:31.880Z,0.00
2022-09-04T22:13:32.036Z,0.00
2022-09-04T22:13:33.828Z,0.00
2022-09-04T22:13:37.504Z,0.00
2022-09-04T22:13:38.855Z,0.00
2022-09-04T22:14:03.159Z,0.00
2022-09-04T22:15:02.027Z,0.00
2022-09-04T22:16:02.172Z,0.00
2022-09-04T22:17:02.027Z,0.00
2022-09-04T22:18:02.011Z,0.00
2022-09-04T22:19:02.066Z,0.00
2022-09-04T22:20:02.085Z,0.00
2022-09-04T22:21:02.018Z,0.00
2022-09-04T22:22:03.626Z,0.00
2022-09-04T22:23:02.050Z,0.00
2022-09-04T22:24:02.035Z,0.00
2022-09-04T22:25:02.043Z,0.00
2022-09-04T22:26:16.217Z,0.00
2022-09-04T22:27:02.030Z,0.00
2022-09-04T22:28:07.647Z,0.00
2022-09-04T22:29:02.034Z,0.00
2022-09-04T22:30:02.086Z,0.00
2022-09-04T22:31:02.094Z,0.00
2022-09-04T22:32:02.034Z,0.00
2022-09-04T22:33:02.024Z,0.00
2022-09-04T22:34:15.678Z,0.00
2022-09-04T22:35:02.033Z,0.00
2022-09-04T22:36:02.042Z,0.00
2022-09-04T22:37:02.033Z,0.00
2022-09-04T22:38:02.028Z,0.00
2022-09-04T22:39:02.038Z,0.00
2022-09-04T22:40:02.195Z,0.00
2022-09-04T22:41:02.027Z,0.00
2022-09-04T22:42:02.026Z,0.00
2022-09-04T22:43:02.041Z,0.00
2022-09-04T22:44:02.069Z,0.00
2022-09-04T22:45:06.834Z,0.00
2022-09-04T22:46:02.077Z,0.00
2022-09-04T22:47:02.113Z,0.00
2022-09-04T22:48:02.026Z,0.00
2022-09-04T22:49:12.278Z,0.00
2022-09-04T22:50:02.031Z,0.00
2022-09-04T22:51:02.047Z,0.00
2022-09-04T22:52:02.027Z,0.00
2022-09-04T22:53:02.036Z,0.00
2022-09-04T22:54:02.031Z,0.00
2022-09-04T22:55:12.907Z,0.00
2022-09-04T22:56:19.218Z,0.00
2022-09-04T22:57:02.045Z,0.00
2022-09-04T22:58:02.034Z,0.00